LiveATC.Net - Listen to live air traffic control over the Internet!


ICAO: YMIA  IATA: MQL   Airport: Mildura Airport
City: Mildura   State/Province: Victoria
Country: Australia   Continent: Oceania
YMIA METAR Weather: YMIA 161400Z AUTO 25005KT 9999 // SCT026 08/04 Q1026
YMIA Flight Activity (FlightAware)

YMIA CTAF
Feed Status: UP   Listeners: 0
Listen in your browser - HTML5 player (in browser, HTML5)
Click here to listen with your own player (launches your MP3 player)
Archive Access: YMIA CTAF
FacilityFrequency
Mildura CTAF118.800

YMIA Melbourne Center
Feed Status: UP   Listeners: 0
Listen in your browser - HTML5 player (in browser, HTML5)
Click here to listen with your own player (launches your MP3 player)
Archive Access: YMIA Melbourne Center
FacilityFrequency
Melbourne Center122.100

NOTICE

Unauthorized use prohibited. See LiveATC.net Terms of Service


Airport/ARTCC Code
Frequency Search
(e.g., 124.400, 128.75)
Site-wide search
 


Browse Feeds
Top 50 Feeds
HF Oceanic Feeds
Coverage Map
Bad Weather Areas

LiveATC FAQ
Offer LiveATC feed
Contact LiveATC.net
Press Inquiries

LiveATC on iPhone
LiveATC on Android

Windows Phone
Windows 8/10

LiveATC Mobile
(Mobile browser)

ATC Audio Archives
Interesting Recordings

LiveATC Forums


Home Page
About LiveATC.net
Make a Donation
Terms of Use
Privacy Policy

Canadian Air Freqs

AIRMETs/SIGMETs

FAA Airport Status
NAS Status
Arrival Demand


Server Software By:
Icecast.org
Liquidsoap